Time;durP1;ratioP1;P1;durP2;ratioP2;P2;SDS_P1;SDS_P2;PMS_P1;PMS_P2;Temp;Humidity;BMP_temperature;BMP_pressure;BME280_temperature;BME280_humidity;BME280_pressure;Samples;Min_cycle;Max_cycle;Signal;HPM_P1;HPM_P2
2022/12/16 00:00:13;;;;;;;40.70;25.30;;;-4.70;99.90;;;;;;4977903;28;20737;-62
2022/12/16 00:02:40;;;;;;;39.00;27.37;;;-4.70;99.90;;;;;;4978631;28;20224;-62
2022/12/16 00:05:06;;;;;;;40.73;28.13;;;-4.60;99.90;;;;;;4978464;28;20284;-62
2022/12/16 00:07:31;;;;;;;39.13;26.77;;;-4.70;99.90;;;;;;4976743;28;20228;-62
2022/12/16 00:09:57;;;;;;;37.60;24.73;;;-4.70;99.90;;;;;;4974010;28;20204;-62
2022/12/16 00:12:22;;;;;;;46.97;29.60;;;-4.70;99.90;;;;;;4977425;28;20220;-62
2022/12/16 00:14:48;;;;;;;41.47;27.33;;;-4.70;99.90;;;;;;4979247;28;20196;-63
2022/12/16 00:17:13;;;;;;;40.07;26.30;;;-4.70;99.90;;;;;;4988160;28;20561;-62
2022/12/16 00:19:39;;;;;;;40.10;27.63;;;-4.90;99.90;;;;;;4983902;28;20204;-63
2022/12/16 00:22:04;;;;;;;42.13;28.13;;;-4.80;99.90;;;;;;4982727;28;20200;-63
2022/12/16 00:24:30;;;;;;;41.03;25.10;;;-4.70;99.90;;;;;;4977515;28;20212;-61
2022/12/16 00:26:56;;;;;;;45.00;26.30;;;-4.80;99.90;;;;;;4977277;28;20768;-63
2022/12/16 00:29:21;;;;;;;41.67;27.20;;;-4.80;99.90;;;;;;4980509;28;20207;-63
2022/12/16 00:31:47;;;;;;;44.83;27.87;;;-4.80;99.90;;;;;;4987891;28;20220;-62
2022/12/16 00:34:16;;;;;;;38.10;25.20;;;-4.80;99.90;;;;;;4985155;28;20683;-62
2022/12/16 00:36:42;;;;;;;43.83;27.47;;;-4.80;99.90;;;;;;4983836;28;20252;-62
2022/12/16 00:39:08;;;;;;;43.83;27.87;;;-4.90;99.90;;;;;;4977838;28;20836;-61
2022/12/16 00:41:34;;;;;;;37.37;27.23;;;-4.80;99.90;;;;;;4977678;28;20228;-62
2022/12/16 00:43:59;;;;;;;40.03;28.73;;;-4.80;99.90;;;;;;4977880;28;20532;-62
2022/12/16 00:46:25;;;;;;;43.00;28.13;;;-4.70;99.90;;;;;;4975723;28;20267;-62
2022/12/16 00:48:50;;;;;;;42.30;28.20;;;-4.70;99.90;;;;;;4977426;28;20633;-61
2022/12/16 00:51:16;;;;;;;42.67;25.90;;;-4.80;99.90;;;;;;4977778;28;20209;-61
2022/12/16 00:53:41;;;;;;;42.23;27.87;;;-4.70;99.90;;;;;;4977268;28;20204;-61
2022/12/16 00:56:09;;;;;;;45.27;28.17;;;-4.60;99.90;;;;;;4976817;28;20842;-62
2022/12/16 00:58:36;;;;;;;43.00;27.63;;;-4.60;99.90;;;;;;4975501;28;20197;-62
2022/12/16 01:01:02;;;;;;;43.27;27.97;;;-4.60;99.90;;;;;;4977250;28;20663;-63
2022/12/16 01:03:27;;;;;;;36.13;26.20;;;-4.70;99.90;;;;;;4976944;28;20690;-61
2022/12/16 01:05:53;;;;;;;44.77;27.07;;;-4.70;99.90;;;;;;4976174;28;20315;-62
2022/12/16 01:08:19;;;;;;;40.67;27.50;;;-4.70;99.90;;;;;;4976414;28;20204;-65
2022/12/16 01:10:52;;;;;;;48.00;28.30;;;-4.70;99.90;;;;;;4974590;28;20522;-58
2022/12/16 01:13:18;;;;;;;41.90;26.53;;;-4.80;99.90;;;;;;4976763;28;20211;-57
2022/12/16 01:15:43;;;;;;;46.00;28.47;;;-4.90;99.90;;;;;;4976784;28;20205;-58
2022/12/16 01:18:09;;;;;;;42.17;27.37;;;-4.90;99.90;;;;;;4976896;28;20196;-57
2022/12/16 01:20:35;;;;;;;44.10;27.43;;;-5.00;99.90;;;;;;4974707;28;20266;-57
2022/12/16 01:23:00;;;;;;;45.07;27.83;;;-5.00;99.90;;;;;;4976758;28;20770;-59
2022/12/16 01:25:26;;;;;;;37.77;25.97;;;-5.00;99.90;;;;;;4976123;28;20213;-57
2022/12/16 01:27:51;;;;;;;46.53;28.80;;;-4.90;99.90;;;;;;4976150;28;20197;-58
2022/12/16 01:30:17;;;;;;;44.67;28.40;;;-5.00;99.90;;;;;;4980415;28;20204;-58
2022/12/16 01:32:42;;;;;;;45.27;30.00;;;-4.90;99.90;;;;;;4984886;28;20240;-57
2022/12/16 01:35:09;;;;;;;40.23;27.33;;;-4.90;99.90;;;;;;4984710;28;20196;-57
2022/12/16 01:37:34;;;;;;;44.67;28.53;;;-4.90;99.90;;;;;;4983050;28;20258;-60
2022/12/16 01:40:00;;;;;;;38.63;26.27;;;-4.90;99.90;;;;;;4985369;28;20204;-57
2022/12/16 01:42:29;;;;;;;44.87;27.20;;;-4.80;99.90;;;;;;4984547;28;20682;-57
2022/12/16 01:44:55;;;;;;;44.60;26.63;;;-4.90;99.90;;;;;;4985352;28;20695;-57
2022/12/16 01:47:30;;;;;;;38.47;25.93;;;-4.90;99.90;;;;;;4981652;28;20334;-58
2022/12/16 01:50:02;;;;;;;40.73;28.20;;;-4.90;99.90;;;;;;4978348;28;20299;-57
2022/12/16 01:52:32;;;;;;;41.43;27.10;;;-5.00;99.90;;;;;;4975871;28;20221;-59
2022/12/16 01:55:04;;;;;;;42.47;27.13;;;-5.00;99.90;;;;;;4972447;28;20243;-58
2022/12/16 01:57:36;;;;;;;47.03;28.07;;;-5.00;99.90;;;;;;4975828;28;20297;-57
2022/12/16 02:00:05;;;;;;;45.53;27.43;;;-5.00;99.90;;;;;;4974917;28;20201;-56
2022/12/16 02:02:30;;;;;;;39.37;26.27;;;-5.00;99.90;;;;;;4974111;28;20675;-57
2022/12/16 02:07:40;;;;;;;44.23;29.53;;;-5.00;99.90;;;;;;4974046;28;20215;-57
2022/12/16 02:10:06;;;;;;;41.33;26.10;;;-5.10;99.90;;;;;;4975366;28;20205;-57
2022/12/16 02:12:46;;;;;;;47.03;28.07;;;-5.20;99.90;;;;;;4975679;28;20295;-57
2022/12/16 02:15:33;;;;;;;44.40;29.43;;;-5.30;99.90;;;;;;4975053;28;20196;-58
2022/12/16 02:18:16;;;;;;;50.40;31.17;;;-5.30;99.90;;;;;;4975610;28;20208;-58
2022/12/16 02:21:02;;;;;;;50.00;31.13;;;-5.40;99.90;;;;;;4975829;28;20208;-56
2022/12/16 02:23:52;;;;;;;46.03;29.47;;;-5.40;99.90;;;;;;4975889;28;20236;-58
2022/12/16 02:26:56;;;;;;;46.60;28.13;;;-5.40;99.90;;;;;;4973490;28;20220;-57
2022/12/16 02:29:50;;;;;;;45.17;27.37;;;-5.40;99.90;;;;;;4976072;28;20243;-57
2022/12/16 02:32:22;;;;;;;44.90;29.47;;;-5.50;99.90;;;;;;4975829;28;20220;-59
2022/12/16 02:35:23;;;;;;;39.70;28.50;;;-5.50;99.90;;;;;;4975555;28;20279;-56
2022/12/16 02:38:15;;;;;;;43.20;28.37;;;-5.50;99.90;;;;;;4959359;28;20244;-57
2022/12/16 02:40:47;;;;;;;44.60;28.50;;;-5.50;99.90;;;;;;4973786;28;20261;-57
2022/12/16 02:43:35;;;;;;;42.43;27.93;;;-5.50;99.90;;;;;;4980569;28;20196;-56
2022/12/16 02:46:02;;;;;;;49.17;27.33;;;-5.50;99.90;;;;;;4975205;28;20201;-57
2022/12/16 02:48:28;;;;;;;47.90;29.60;;;-5.50;99.90;;;;;;4971637;28;20208;-57
2022/12/16 02:50:53;;;;;;;45.27;30.63;;;-5.50;99.90;;;;;;4975498;28;20720;-57
2022/12/16 02:53:20;;;;;;;43.53;29.23;;;-5.50;99.90;;;;;;4982591;28;20675;-57
2022/12/16 02:55:58;;;;;;;46.43;28.97;;;-5.50;99.90;;;;;;4977319;28;20228;-57
2022/12/16 02:58:45;;;;;;;47.13;30.20;;;-5.60;99.90;;;;;;4973924;28;20201;-57
2022/12/16 03:01:24;;;;;;;41.13;27.67;;;-5.60;99.90;;;;;;4973079;28;20223;-58
2022/12/16 03:04:01;;;;;;;43.80;28.60;;;-5.60;99.90;;;;;;4975637;28;20215;-58
2022/12/16 03:06:30;;;;;;;42.20;28.33;;;-5.60;99.90;;;;;;4976492;28;20208;-57
2022/12/16 03:09:00;;;;;;;50.80;28.60;;;-5.70;99.90;;;;;;4975000;28;20211;-57
2022/12/16 03:11:28;;;;;;;44.23;30.03;;;-5.80;99.90;;;;;;4975193;28;20224;-57
2022/12/16 03:13:55;;;;;;;47.47;29.47;;;-5.80;99.90;;;;;;4973633;28;20232;-57
2022/12/16 03:16:26;;;;;;;42.97;27.50;;;-5.80;99.90;;;;;;4975442;28;20204;-57
2022/12/16 03:18:55;;;;;;;42.47;28.60;;;-5.80;99.90;;;;;;4975435;28;20296;-57
2022/12/16 03:21:23;;;;;;;46.87;30.03;;;-5.80;99.90;;;;;;4974990;28;20292;-58
2022/12/16 03:23:57;;;;;;;40.33;28.10;;;-5.70;99.90;;;;;;4973701;28;20205;-57
2022/12/16 03:26:34;;;;;;;47.93;28.63;;;-5.60;99.90;;;;;;4975731;28;20418;-57
2022/12/16 03:29:12;;;;;;;48.70;30.13;;;-5.60;99.90;;;;;;4977748;28;20200;-57
2022/12/16 03:31:42;;;;;;;45.87;28.43;;;-5.60;99.90;;;;;;4977314;28;21052;-57
2022/12/16 03:34:24;;;;;;;50.03;29.70;;;-5.60;99.90;;;;;;4974518;28;20216;-57
2022/12/16 03:36:55;;;;;;;47.93;27.03;;;-5.70;99.90;;;;;;4976673;28;20357;-56
2022/12/16 03:39:22;;;;;;;47.90;28.80;;;-5.70;99.90;;;;;;4978410;28;20227;-57
2022/12/16 03:41:52;;;;;;;45.07;28.97;;;-5.70;99.90;;;;;;4978316;28;20563;-57
2022/12/16 03:44:20;;;;;;;57.27;30.23;;;-5.80;99.90;;;;;;4978888;28;20204;-58
2022/12/16 03:46:46;;;;;;;41.37;27.53;;;-5.80;99.90;;;;;;4978550;28;20259;-57
2022/12/16 03:49:12;;;;;;;48.27;28.87;;;-5.90;99.90;;;;;;4978514;28;20209;-57
2022/12/16 03:51:37;;;;;;;45.73;27.43;;;-5.90;99.90;;;;;;4976812;28;20609;-56
2022/12/16 03:54:03;;;;;;;45.97;27.40;;;-5.90;99.90;;;;;;4978435;28;20216;-58
2022/12/16 03:56:28;;;;;;;44.80;27.20;;;-5.90;99.90;;;;;;4978098;28;20659;-57
2022/12/16 03:58:54;;;;;;;44.93;26.87;;;-6.00;99.90;;;;;;4978382;28;20281;-58
2022/12/16 04:01:19;;;;;;;42.60;27.07;;;-6.00;99.90;;;;;;4978432;28;20678;-58
2022/12/16 04:03:45;;;;;;;46.20;28.23;;;-6.10;99.90;;;;;;4978653;28;20201;-57
2022/12/16 04:06:10;;;;;;;43.80;26.87;;;-6.00;99.90;;;;;;4978206;28;20288;-57
2022/12/16 04:08:36;;;;;;;45.57;26.83;;;-6.10;99.90;;;;;;4976382;28;20648;-58
2022/12/16 04:25:09;;;;;;;45.23;26.30;;;-6.00;99.90;;;;;;4977730;28;20283;-57
2022/12/16 04:27:34;;;;;;;42.60;28.07;;;-6.00;99.90;;;;;;4977260;28;20738;-56
2022/12/16 04:30:18;;;;;;;41.97;26.00;;;-6.00;99.90;;;;;;4975653;28;20205;-57
